createdAt,value
2019-03-27T00:02:24.255Z,24.60
2019-03-27T00:04:52.920Z,22.70
2019-03-27T00:07:21.547Z,22.58
2019-03-27T00:09:50.213Z,22.65
2019-03-27T00:12:18.832Z,21.50
2019-03-27T00:14:47.434Z,25.82
2019-03-27T00:17:16.189Z,19.75
2019-03-27T00:19:44.852Z,22.70
2019-03-27T00:22:13.480Z,23.75
2019-03-27T00:24:42.166Z,28.98
2019-03-27T00:27:10.854Z,21.85
2019-03-27T00:29:39.448Z,25.37
2019-03-27T00:32:08.102Z,28.67
2019-03-27T00:34:36.726Z,24.12
2019-03-27T00:37:05.310Z,26.48
2019-03-27T00:39:33.927Z,22.67
2019-03-27T00:42:02.543Z,20.32
2019-03-27T00:44:31.208Z,28.98
2019-03-27T00:46:59.860Z,25.80
2019-03-27T00:49:28.483Z,21.05
2019-03-27T00:51:57.151Z,24.52
2019-03-27T00:54:25.847Z,20.90
2019-03-27T00:56:54.519Z,25.65
2019-03-27T00:59:23.207Z,23.95
2019-03-27T01:01:51.874Z,21.52
2019-03-27T01:04:20.492Z,31.05
2019-03-27T01:06:50.958Z,21.48
2019-03-27T01:09:19.731Z,35.58
2019-03-27T01:11:48.388Z,30.32
2019-03-27T01:14:17.018Z,24.25
2019-03-27T01:16:45.669Z,21.90
2019-03-27T01:19:14.358Z,19.85
2019-03-27T01:21:42.958Z,23.15
2019-03-27T01:24:11.643Z,29.52
2019-03-27T01:26:40.242Z,26.77
2019-03-27T01:29:08.950Z,26.70
2019-03-27T01:31:40.453Z,28.90
2019-03-27T01:34:09.443Z,31.97
2019-03-27T01:36:38.107Z,25.32
2019-03-27T01:39:06.721Z,33.25
2019-03-27T01:41:35.326Z,30.82
2019-03-27T01:44:04.007Z,32.67
2019-03-27T01:46:32.612Z,28.85
2019-03-27T01:49:01.307Z,35.55
2019-03-27T01:51:29.907Z,28.95
2019-03-27T01:53:58.602Z,40.17
2019-03-27T01:56:27.281Z,37.33
2019-03-27T01:58:55.891Z,34.43
2019-03-27T02:01:24.536Z,39.42
2019-03-27T02:03:53.229Z,30.88
2019-03-27T02:06:21.893Z,32.90
2019-03-27T02:08:50.497Z,35.50
2019-03-27T02:11:19.208Z,22.35
2019-03-27T02:13:47.872Z,39.67
2019-03-27T02:16:16.559Z,30.45
2019-03-27T02:18:45.235Z,30.08
2019-03-27T02:21:13.919Z,31.35
2019-03-27T02:23:42.571Z,26.82
2019-03-27T02:26:11.187Z,35.30
2019-03-27T02:28:39.875Z,34.80
2019-03-27T02:31:08.556Z,33.10
2019-03-27T02:33:37.230Z,33.95
2019-03-27T02:36:05.921Z,36.28
2019-03-27T02:38:34.587Z,24.98
2019-03-27T02:41:03.365Z,33.42
2019-03-27T02:43:32.015Z,33.83
2019-03-27T02:46:00.716Z,37.28
2019-03-27T02:48:29.403Z,38.17
2019-03-27T02:50:58.083Z,33.25
2019-03-27T02:53:26.747Z,30.12
2019-03-27T02:55:55.374Z,37.98
2019-03-27T02:58:24.036Z,36.90
2019-03-27T03:00:52.749Z,31.50
2019-03-27T03:03:21.354Z,31.27
2019-03-27T03:05:50.039Z,33.40
2019-03-27T03:08:18.716Z,36.90
2019-03-27T03:10:47.400Z,36.68
2019-03-27T03:13:16.072Z,37.38
2019-03-27T03:15:44.708Z,32.85
2019-03-27T03:18:13.304Z,35.35
2019-03-27T03:20:42.014Z,32.42
2019-03-27T03:23:10.714Z,39.08
2019-03-27T03:25:39.409Z,30.65
2019-03-27T03:28:08.062Z,33.67
2019-03-27T03:30:36.700Z,43.65
2019-03-27T03:33:05.372Z,32.75
2019-03-27T03:35:34.087Z,39.27
2019-03-27T03:38:02.751Z,43.73
2019-03-27T03:40:31.370Z,47.25
2019-03-27T03:43:00.069Z,32.75
2019-03-27T03:45:28.747Z,36.20
2019-03-27T03:47:57.455Z,37.45
2019-03-27T03:50:39.690Z,33.55
2019-03-27T03:53:10.242Z,38.55
2019-03-27T03:55:39.336Z,29.67
2019-03-27T03:58:12.010Z,38.88
2019-03-27T04:00:41.072Z,49.42
2019-03-27T04:03:09.816Z,56.73
2019-03-27T04:05:38.517Z,34.00
2019-03-27T04:08:07.184Z,24.92
2019-03-27T04:10:35.870Z,32.20
2019-03-27T04:13:04.613Z,31.97
2019-03-27T04:15:33.270Z,40.00
2019-03-27T04:18:01.975Z,38.00
2019-03-27T04:20:30.648Z,35.08
2019-03-27T04:22:59.262Z,37.63
2019-03-27T04:25:27.939Z,39.58
2019-03-27T04:27:56.625Z,37.00
2019-03-27T04:30:25.312Z,34.27
2019-03-27T04:32:53.900Z,33.45
2019-03-27T04:35:22.601Z,33.65
2019-03-27T04:37:51.268Z,34.40
2019-03-27T04:40:19.964Z,28.83
2019-03-27T04:42:48.658Z,33.70
2019-03-27T04:45:17.406Z,40.88
2019-03-27T04:47:46.100Z,32.65
2019-03-27T04:50:14.763Z,35.85
2019-03-27T04:52:43.452Z,33.67
2019-03-27T04:55:12.149Z,36.55
2019-03-27T04:57:40.830Z,38.48
2019-03-27T05:00:09.878Z,38.45
2019-03-27T05:05:07.381Z,32.60
2019-03-27T05:07:36.384Z,39.08
2019-03-27T05:10:05.526Z,89.22
2019-03-27T05:12:34.504Z,45.23
2019-03-27T05:15:03.279Z,33.35
2019-03-27T05:17:44.729Z,29.23
2019-03-27T05:20:02.320Z,44.03
2019-03-27T05:22:30.977Z,32.10
2019-03-27T05:24:59.606Z,27.10
2019-03-27T05:27:28.200Z,31.68
2019-03-27T05:29:56.907Z,36.13
2019-03-27T05:32:25.568Z,27.40
2019-03-27T05:34:54.278Z,22.65
2019-03-27T05:37:22.948Z,31.50
2019-03-27T05:39:51.544Z,27.65
2019-03-27T05:42:20.265Z,33.80
2019-03-27T05:44:48.924Z,33.92
2019-03-27T05:47:17.557Z,33.28
2019-03-27T05:49:46.165Z,29.00
2019-03-27T05:52:14.875Z,38.42
2019-03-27T05:54:43.593Z,36.58
2019-03-27T05:57:12.265Z,29.80
2019-03-27T05:59:41.038Z,35.58
2019-03-27T06:02:09.714Z,34.30
2019-03-27T06:04:38.419Z,35.55
2019-03-27T06:07:07.036Z,36.50
2019-03-27T06:09:35.744Z,56.35
2019-03-27T06:12:04.416Z,42.20
2019-03-27T06:14:33.117Z,36.65
2019-03-27T06:17:01.822Z,37.65
2019-03-27T06:19:30.510Z,33.50
2019-03-27T06:21:59.209Z,42.35
2019-03-27T06:24:27.908Z,32.28
2019-03-27T06:26:56.528Z,30.60
2019-03-27T06:29:25.306Z,40.35
2019-03-27T06:31:53.918Z,30.45
2019-03-27T06:34:22.615Z,33.23
2019-03-27T06:36:53.632Z,30.40
2019-03-27T06:39:25.158Z,37.40
2019-03-27T06:41:54.083Z,40.08
2019-03-27T06:44:22.681Z,33.38
2019-03-27T06:46:51.322Z,34.03
2019-03-27T06:49:20.009Z,36.48
2019-03-27T06:51:48.706Z,32.35
2019-03-27T06:54:17.388Z,28.02
2019-03-27T06:56:46.064Z,32.28
2019-03-27T06:59:14.696Z,35.58
2019-03-27T07:01:43.378Z,38.02
2019-03-27T07:04:12.079Z,31.45
2019-03-27T07:06:40.779Z,36.55
2019-03-27T07:09:09.567Z,37.13
2019-03-27T07:11:38.267Z,30.32
2019-03-27T07:14:06.889Z,31.75
2019-03-27T07:16:35.577Z,27.80
2019-03-27T07:19:04.255Z,32.30
2019-03-27T07:21:32.918Z,38.48
2019-03-27T07:24:01.517Z,29.72
2019-03-27T07:26:30.245Z,33.42
2019-03-27T07:28:58.979Z,27.13
2019-03-27T07:31:27.652Z,28.07
2019-03-27T07:33:56.367Z,27.98
2019-03-27T07:36:25.029Z,33.28
2019-03-27T07:38:53.657Z,24.52
2019-03-27T07:41:22.349Z,27.70
2019-03-27T07:43:50.965Z,32.30
2019-03-27T07:46:19.659Z,38.50
2019-03-27T07:48:53.787Z,34.80
2019-03-27T07:51:19.000Z,24.35
2019-03-27T07:53:47.671Z,21.45
2019-03-27T07:56:16.343Z,38.58
2019-03-27T07:58:44.965Z,28.75
2019-03-27T08:01:13.656Z,31.23
2019-03-27T08:03:42.363Z,31.00
2019-03-27T08:06:10.977Z,31.93
2019-03-27T08:08:39.635Z,29.45
2019-03-27T08:11:08.312Z,28.50
2019-03-27T08:13:37.007Z,26.62
2019-03-27T08:16:05.713Z,24.18
2019-03-27T08:18:34.311Z,21.25
2019-03-27T08:21:02.973Z,23.10
2019-03-27T08:23:31.611Z,25.90
2019-03-27T08:26:00.236Z,17.07
2019-03-27T08:28:28.911Z,23.30
2019-03-27T08:30:57.527Z,24.20
2019-03-27T08:33:26.120Z,19.05
2019-03-27T08:35:54.751Z,17.37
2019-03-27T08:38:23.417Z,18.45
2019-03-27T08:40:52.101Z,26.60
2019-03-27T08:43:23.962Z,21.33
2019-03-27T08:45:51.335Z,27.13
2019-03-27T08:48:19.993Z,24.02
2019-03-27T08:50:48.682Z,19.50
2019-03-27T08:53:17.291Z,21.85
2019-03-27T08:55:45.987Z,19.45
2019-03-27T08:58:14.668Z,19.45
2019-03-27T09:00:47.305Z,20.70
2019-03-27T09:03:16.336Z,17.87
2019-03-27T09:05:44.943Z,14.98
2019-03-27T09:08:13.957Z,17.92
2019-03-27T09:13:09.995Z,20.08
2019-03-27T09:15:38.675Z,16.32
2019-03-27T09:18:07.367Z,12.60
2019-03-27T09:20:35.971Z,21.00
2019-03-27T09:23:04.671Z,19.45
2019-03-27T09:25:33.282Z,14.05
2019-03-27T09:28:01.977Z,14.23
2019-03-27T09:30:30.572Z,21.77
2019-03-27T09:32:59.192Z,15.53
2019-03-27T09:35:27.811Z,16.50
2019-03-27T09:37:56.562Z,18.20
2019-03-27T09:40:25.208Z,16.57
2019-03-27T09:42:53.910Z,12.55
2019-03-27T09:45:22.580Z,18.15
2019-03-27T09:47:51.220Z,26.02
2019-03-27T09:50:19.902Z,49.75
2019-03-27T09:52:48.600Z,15.75
2019-03-27T09:55:17.273Z,13.68
2019-03-27T09:57:45.979Z,14.40
2019-03-27T10:00:14.670Z,13.55
2019-03-27T10:02:43.301Z,17.15
2019-03-27T10:05:11.979Z,14.33
2019-03-27T10:07:40.659Z,8.18
2019-03-27T10:10:09.346Z,15.18
2019-03-27T10:12:38.092Z,13.90
2019-03-27T10:15:07.584Z,13.78
2019-03-27T10:17:36.562Z,13.13
2019-03-27T10:20:05.421Z,12.53
2019-03-27T10:22:34.016Z,10.80
2019-03-27T10:25:02.786Z,12.30
2019-03-27T10:27:31.464Z,10.18
2019-03-27T10:30:00.379Z,12.78
2019-03-27T10:32:28.749Z,12.15
2019-03-27T10:34:57.443Z,13.18
2019-03-27T10:37:26.044Z,11.95
2019-03-27T10:39:54.655Z,9.25
2019-03-27T10:42:23.337Z,12.33
2019-03-27T10:44:51.956Z,14.68
2019-03-27T10:47:20.571Z,16.23
2019-03-27T10:49:49.264Z,14.20
2019-03-27T10:52:17.938Z,19.10
2019-03-27T10:54:46.580Z,10.65
2019-03-27T10:57:15.179Z,12.53
2019-03-27T10:59:43.834Z,13.83
2019-03-27T11:02:12.518Z,10.90
2019-03-27T11:04:41.272Z,10.40
2019-03-27T11:07:09.961Z,12.55
2019-03-27T11:09:38.614Z,11.78
2019-03-27T11:12:07.300Z,15.83
2019-03-27T11:14:38.247Z,10.93
2019-03-27T11:17:06.669Z,13.75
2019-03-27T11:19:35.272Z,12.05
2019-03-27T11:22:03.911Z,12.85
2019-03-27T11:24:32.515Z,16.60
2019-03-27T11:27:01.248Z,8.58
2019-03-27T11:29:29.700Z,10.98
2019-03-27T11:31:58.380Z,12.05
2019-03-27T11:34:26.985Z,17.92
2019-03-27T11:36:55.607Z,11.63
2019-03-27T11:39:24.837Z,13.05
2019-03-27T11:41:53.862Z,13.22
2019-03-27T11:44:22.477Z,8.88
2019-03-27T11:46:51.146Z,9.88
2019-03-27T11:49:19.855Z,11.25
2019-03-27T11:51:48.529Z,8.23
2019-03-27T11:54:17.199Z,11.03
2019-03-27T11:56:45.879Z,5.55
2019-03-27T11:59:14.552Z,8.73
2019-03-27T12:01:43.875Z,7.55
2019-03-27T12:04:12.904Z,7.97
2019-03-27T12:06:41.579Z,9.10
2019-03-27T12:09:10.176Z,7.30
2019-03-27T12:11:38.845Z,8.70
2019-03-27T12:14:07.527Z,6.05
2019-03-27T12:16:36.196Z,9.13
2019-03-27T12:19:04.955Z,8.25
2019-03-27T12:21:33.626Z,6.45
2019-03-27T12:24:02.297Z,8.68
2019-03-27T12:26:30.989Z,15.32
2019-03-27T12:28:59.674Z,10.30
2019-03-27T12:31:28.442Z,11.05
2019-03-27T12:33:57.117Z,11.63
2019-03-27T12:36:25.744Z,9.10
2019-03-27T12:38:54.413Z,13.18
2019-03-27T12:41:23.093Z,6.95
2019-03-27T12:43:51.783Z,8.20
2019-03-27T12:46:20.460Z,13.70
2019-03-27T12:48:49.165Z,7.22
2019-03-27T12:51:17.772Z,7.70
2019-03-27T12:53:46.430Z,7.53
2019-03-27T12:56:15.105Z,7.15
2019-03-27T12:58:43.774Z,6.83
2019-03-27T13:01:12.465Z,5.47
2019-03-27T13:03:44.195Z,8.73
2019-03-27T13:06:11.742Z,7.08
2019-03-27T13:08:40.418Z,5.30
2019-03-27T13:11:09.071Z,7.15
2019-03-27T13:13:37.674Z,7.08
2019-03-27T13:16:06.341Z,4.45
2019-03-27T13:18:35.028Z,8.45
2019-03-27T13:21:03.715Z,10.00
2019-03-27T13:23:32.371Z,7.30
2019-03-27T13:26:00.982Z,7.58
2019-03-27T13:28:29.650Z,7.45
2019-03-27T13:30:58.351Z,8.83
2019-03-27T13:33:27.012Z,7.50
2019-03-27T13:35:55.664Z,9.38
2019-03-27T13:38:24.271Z,7.72
2019-03-27T13:40:52.933Z,5.37
2019-03-27T13:43:21.627Z,8.40
2019-03-27T13:45:50.387Z,9.68
2019-03-27T13:48:18.974Z,8.48
2019-03-27T13:50:47.661Z,7.22
2019-03-27T13:53:16.325Z,8.85
2019-03-27T13:55:45.020Z,5.62
2019-03-27T13:58:13.684Z,5.35
2019-03-27T14:00:42.377Z,7.50
2019-03-27T14:03:11.050Z,4.42
2019-03-27T14:05:39.715Z,4.70
2019-03-27T14:08:08.377Z,7.83
2019-03-27T14:10:37.036Z,6.10
2019-03-27T14:13:05.724Z,27.17
2019-03-27T14:15:34.403Z,28.40
2019-03-27T14:18:03.093Z,7.83
2019-03-27T14:20:31.682Z,5.87
2019-03-27T14:23:00.807Z,3.10
2019-03-27T14:25:29.741Z,43.05
2019-03-27T14:27:58.480Z,5.67
2019-03-27T14:30:46.814Z,3.15
2019-03-27T14:33:15.484Z,3.92
2019-03-27T14:35:44.160Z,3.92
2019-03-27T14:38:12.867Z,3.08
2019-03-27T14:40:41.454Z,2.95
2019-03-27T14:43:10.044Z,2.77
2019-03-27T14:45:38.648Z,2.00
2019-03-27T14:48:07.314Z,4.53
2019-03-27T14:50:36.012Z,2.92
2019-03-27T14:53:04.604Z,3.67
2019-03-27T14:55:33.230Z,3.92
2019-03-27T14:58:01.811Z,2.60
2019-03-27T15:00:30.402Z,4.28
2019-03-27T15:02:58.993Z,3.10
2019-03-27T15:05:27.575Z,3.33
2019-03-27T15:07:56.202Z,2.98
2019-03-27T15:10:24.857Z,2.85
2019-03-27T15:12:53.466Z,5.35
2019-03-27T15:15:22.131Z,2.50
2019-03-27T15:17:50.723Z,4.95
2019-03-27T15:20:19.407Z,4.37
2019-03-27T15:22:47.976Z,2.90
2019-03-27T15:25:16.591Z,4.75
2019-03-27T15:27:45.198Z,2.70
2019-03-27T15:30:13.859Z,2.70
2019-03-27T15:32:42.607Z,3.95
2019-03-27T15:35:11.260Z,2.90
2019-03-27T15:37:39.930Z,3.80
2019-03-27T15:40:08.596Z,3.50
2019-03-27T15:42:37.489Z,5.60
2019-03-27T15:45:09.456Z,4.35
2019-03-27T15:47:38.361Z,9.38
2019-03-27T15:50:07.049Z,13.08
2019-03-27T15:52:37.116Z,4.17
2019-03-27T15:55:06.776Z,4.72
2019-03-27T15:57:35.727Z,4.35
2019-03-27T16:00:05.343Z,8.35
2019-03-27T16:02:34.231Z,4.83
2019-03-27T16:05:02.930Z,12.98
2019-03-27T16:07:31.604Z,6.37
2019-03-27T16:10:00.478Z,4.95
2019-03-27T16:12:28.871Z,8.45
2019-03-27T16:14:57.474Z,5.67
2019-03-27T16:17:26.143Z,6.37
2019-03-27T16:19:54.855Z,5.47
2019-03-27T16:22:23.522Z,6.70
2019-03-27T16:24:52.216Z,6.87
2019-03-27T16:27:20.898Z,8.65
2019-03-27T16:29:49.557Z,9.30
2019-03-27T16:32:18.177Z,10.10
2019-03-27T16:34:46.789Z,9.98
2019-03-27T16:37:15.490Z,11.90
2019-03-27T16:39:44.171Z,14.43
2019-03-27T16:42:12.871Z,16.48
2019-03-27T16:44:41.554Z,12.75
2019-03-27T16:47:10.269Z,15.93
2019-03-27T16:49:38.941Z,24.98
2019-03-27T16:52:07.549Z,30.50
2019-03-27T16:54:36.263Z,15.93
2019-03-27T16:57:04.936Z,18.23
2019-03-27T16:59:33.555Z,12.33
2019-03-27T17:02:02.225Z,12.20
2019-03-27T17:04:30.940Z,15.38
2019-03-27T17:06:59.630Z,15.43
2019-03-27T17:09:28.331Z,18.15
2019-03-27T17:11:57.032Z,15.18
2019-03-27T17:14:25.648Z,15.50
2019-03-27T17:16:54.397Z,17.30
2019-03-27T17:19:23.053Z,12.13
2019-03-27T17:21:51.758Z,16.45
2019-03-27T17:24:20.427Z,17.52
2019-03-27T17:26:49.103Z,15.35
2019-03-27T17:29:17.815Z,14.00
2019-03-27T17:31:46.491Z,18.12
2019-03-27T17:34:15.202Z,17.77
2019-03-27T17:36:43.815Z,10.35
2019-03-27T17:39:12.501Z,11.22
2019-03-27T17:41:41.202Z,30.92
2019-03-27T17:44:09.888Z,22.35
2019-03-27T17:46:38.630Z,12.88
2019-03-27T17:49:07.291Z,11.70
2019-03-27T17:51:35.984Z,11.78
2019-03-27T17:54:04.683Z,11.90
2019-03-27T17:56:33.341Z,16.65
2019-03-27T17:59:02.053Z,11.65
2019-03-27T18:01:30.671Z,11.43
2019-03-27T18:03:59.397Z,12.25
2019-03-27T18:06:28.084Z,14.73
2019-03-27T18:08:56.755Z,11.90
2019-03-27T18:11:25.469Z,9.63
2019-03-27T18:13:54.143Z,12.90
2019-03-27T18:16:22.834Z,13.28
2019-03-27T18:18:51.425Z,11.33
2019-03-27T18:21:21.458Z,12.60
2019-03-27T18:23:50.461Z,13.05
2019-03-27T18:26:19.164Z,17.25
2019-03-27T18:28:47.807Z,12.85
2019-03-27T18:31:16.515Z,15.20
2019-03-27T18:33:45.337Z,11.48
2019-03-27T18:36:13.735Z,14.15
2019-03-27T18:38:45.620Z,14.07
2019-03-27T18:41:13.050Z,13.68
2019-03-27T18:43:41.723Z,12.33
2019-03-27T18:46:10.371Z,11.90
2019-03-27T18:48:39.059Z,17.32
2019-03-27T18:51:07.754Z,20.75
2019-03-27T18:53:36.439Z,11.50
2019-03-27T18:56:05.171Z,14.83
2019-03-27T18:58:33.846Z,16.45
2019-03-27T19:01:02.533Z,16.97
2019-03-27T19:03:31.211Z,13.88
2019-03-27T19:05:59.887Z,20.43
2019-03-27T19:08:28.580Z,15.88
2019-03-27T19:10:57.198Z,14.23
2019-03-27T19:13:25.826Z,14.60
2019-03-27T19:15:54.505Z,25.40
2019-03-27T19:18:23.146Z,20.35
2019-03-27T19:20:51.755Z,20.30
2019-03-27T19:23:20.427Z,18.07
2019-03-27T19:25:49.114Z,21.90
2019-03-27T19:28:17.802Z,19.20
2019-03-27T19:30:46.436Z,25.00
2019-03-27T19:33:15.120Z,19.67
2019-03-27T19:35:43.833Z,21.73
2019-03-27T19:38:12.544Z,21.40
2019-03-27T19:40:41.236Z,17.07
2019-03-27T19:43:09.926Z,19.57
2019-03-27T19:45:38.602Z,22.22
2019-03-27T19:48:07.279Z,16.48
2019-03-27T19:50:35.937Z,24.87
2019-03-27T19:53:04.701Z,31.73
2019-03-27T19:55:33.414Z,36.45
2019-03-27T19:58:02.103Z,24.40
2019-03-27T20:00:30.804Z,34.25
2019-03-27T20:02:59.498Z,27.58
2019-03-27T20:05:28.121Z,21.87
2019-03-27T20:07:56.812Z,24.20
2019-03-27T20:10:25.510Z,26.48
2019-03-27T20:12:54.197Z,20.12
2019-03-27T20:15:22.870Z,30.72
2019-03-27T20:17:51.590Z,27.13
2019-03-27T20:20:20.271Z,25.45
2019-03-27T20:22:48.965Z,24.12
2019-03-27T20:25:17.640Z,24.07
2019-03-27T20:27:46.254Z,24.07
2019-03-27T20:30:20.862Z,30.05
2019-03-27T20:32:49.852Z,24.60
2019-03-27T20:35:18.577Z,32.25
2019-03-27T20:37:47.272Z,28.00
2019-03-27T20:40:15.925Z,29.27
2019-03-27T20:42:44.663Z,27.45
2019-03-27T20:45:13.811Z,30.50
2019-03-27T20:47:42.792Z,26.05
2019-03-27T20:50:11.504Z,31.55
2019-03-27T20:52:40.172Z,37.60
2019-03-27T20:55:08.810Z,33.08
2019-03-27T20:57:37.529Z,35.35
2019-03-27T21:00:06.456Z,29.18
2019-03-27T21:02:34.908Z,29.92
2019-03-27T21:05:04.256Z,32.70
2019-03-27T21:07:33.269Z,29.37
2019-03-27T21:10:01.961Z,39.27
2019-03-27T21:12:30.648Z,40.35
2019-03-27T21:14:59.357Z,34.50
2019-03-27T21:17:28.037Z,35.45
2019-03-27T21:19:56.739Z,34.67
2019-03-27T21:22:25.430Z,38.80
2019-03-27T21:25:07.609Z,40.80
2019-03-27T21:27:24.759Z,33.48
2019-03-27T21:29:53.395Z,39.48
2019-03-27T21:32:22.128Z,40.60
2019-03-27T21:34:50.821Z,40.15
2019-03-27T21:37:19.569Z,34.95
2019-03-27T21:39:48.272Z,38.75
2019-03-27T21:42:16.990Z,37.80
2019-03-27T21:44:45.733Z,36.65
2019-03-27T21:47:14.467Z,104.50
2019-03-27T21:49:43.198Z,46.10
2019-03-27T21:52:11.910Z,39.33
2019-03-27T21:54:40.629Z,43.85
2019-03-27T21:57:09.353Z,45.43
2019-03-27T21:59:38.067Z,46.70
2019-03-27T22:02:07.066Z,34.35
2019-03-27T22:07:03.306Z,39.83
2019-03-27T22:09:32.011Z,43.10
2019-03-27T22:12:00.769Z,44.25
2019-03-27T22:14:29.471Z,42.35
2019-03-27T22:16:58.188Z,47.25
2019-03-27T22:19:26.909Z,43.42
2019-03-27T22:21:55.600Z,41.55
2019-03-27T22:24:24.320Z,43.65
2019-03-27T22:26:53.043Z,41.68
2019-03-27T22:29:21.777Z,42.88
2019-03-27T22:31:50.487Z,37.30
2019-03-27T22:34:19.287Z,45.12
2019-03-27T22:36:47.741Z,48.02
2019-03-27T22:39:16.448Z,51.00
2019-03-27T22:41:45.166Z,39.92
2019-03-27T22:44:13.868Z,39.25
2019-03-27T22:46:42.637Z,39.53
2019-03-27T22:49:11.315Z,43.45
2019-03-27T22:51:40.010Z,38.17
2019-03-27T22:54:08.736Z,47.88
2019-03-27T22:56:37.441Z,39.90
2019-03-27T22:59:06.167Z,52.30
2019-03-27T23:01:40.635Z,40.58
2019-03-27T23:04:09.647Z,40.90
2019-03-27T23:06:38.368Z,50.03
2019-03-27T23:09:07.085Z,36.45
2019-03-27T23:11:35.811Z,49.90
2019-03-27T23:14:04.515Z,53.30
2019-03-27T23:16:33.253Z,47.00
2019-03-27T23:19:01.970Z,47.40
2019-03-27T23:21:30.787Z,48.02
2019-03-27T23:23:59.492Z,40.67
2019-03-27T23:26:28.229Z,36.35
2019-03-27T23:28:56.933Z,46.37
2019-03-27T23:31:25.647Z,42.60
2019-03-27T23:33:54.359Z,38.75
2019-03-27T23:36:23.072Z,43.52
2019-03-27T23:38:51.813Z,44.58
2019-03-27T23:41:20.514Z,39.23
2019-03-27T23:43:49.261Z,44.73
2019-03-27T23:46:17.950Z,41.95
2019-03-27T23:48:46.670Z,42.27
2019-03-27T23:51:17.516Z,42.90
2019-03-27T23:53:46.221Z,37.50
2019-03-27T23:56:16.983Z,46.20
2019-03-27T23:58:45.577Z,42.60
